Coal Creek, Washington
Current Conditions -  °F | °C
As of 12:53 AM on Friday 24 Oct 2014 (Local Time) from KRNT Reporting Station
Light Rain Light Rain  
Wind Chill: 50°   Ceiling: 6500
Heat Index: 50°   Visibility: 9mi
Dew Point: 47°   Wind: 3mph
Humidity: 89%   Direction: 130°SE
Pressure: 30.03"   Gusts: NA
Location:  47.4953°N, 121.984°W
Report Text: KRNT 240753Z 13003KT 9SM -RA OVC065 10/08 A3003 RMK AO2 RAB08 SLP172 P0001 T01000083 401560094
Loading
Personal Weather Stations






























Interactive Weather Map
Tropical Storm Tracking
New forecast layout! Learn more

10-Day Weather Forecast

Advertisements
Track Severe Weather on mobile